Time;durP1;ratioP1;P1;durP2;ratioP2;P2;SDS_P1;SDS_P2;PMS_P1;PMS_P2;Temp;Humidity;BMP_temperature;BMP_pressure;BME280_temperature;BME280_humidity;BME280_pressure;Samples;Min_cycle;Max_cycle;Signal;HPM_P1;HPM_P2
2023/01/27 00:02:11;;;;;;;8.43;4.37;;;;;;;4.35;100.00;102410.56;4979751;28;20290;-78
2023/01/27 00:04:36;;;;;;;6.10;3.73;;;;;;;4.37;100.00;102413.19;4958273;28;20189;-79
2023/01/27 00:07:02;;;;;;;4.70;3.53;;;;;;;4.36;100.00;102416.47;4965826;28;20199;-78
2023/01/27 00:09:27;;;;;;;5.57;3.80;;;;;;;4.36;100.00;102417.38;4971130;28;20247;-78
2023/01/27 00:14:36;;;;;;;4.70;3.50;;;;;;;4.36;100.00;102417.38;4973065;28;20236;-78
2023/01/27 00:17:02;;;;;;;4.17;3.00;;;;;;;4.33;100.00;102414.63;4963936;28;20222;-78
2023/01/27 00:19:27;;;;;;;3.73;3.37;;;;;;;4.35;100.00;102423.22;4974004;28;20639;-77
2023/01/27 00:24:37;;;;;;;4.80;2.87;;;;;;;4.40;100.00;102432.03;4971991;28;20274;-78
2023/01/27 00:27:08;;;;;;;5.13;3.50;;;;;;;4.39;100.00;102424.31;4967944;28;20200;-78
2023/01/27 00:29:34;;;;;;;3.90;3.20;;;;;;;4.38;100.00;102428.50;4955282;28;20212;-78
2023/01/27 00:34:44;;;;;;;5.07;2.90;;;;;;;4.41;100.00;102438.84;4974981;28;20209;-77
2023/01/27 00:37:09;;;;;;;5.53;3.40;;;;;;;4.42;100.00;102430.47;4962978;28;20203;-78
2023/01/27 00:39:35;;;;;;;5.70;4.03;;;;;;;4.45;100.00;102430.69;4960965;28;20212;-78
2023/01/27 00:42:00;;;;;;;7.37;4.57;;;;;;;4.43;100.00;102432.25;4983440;28;20188;-79
2023/01/27 00:44:26;;;;;;;3.60;2.87;;;;;;;4.45;100.00;102433.22;4958251;28;20738;-76
2023/01/27 00:46:51;;;;;;;5.40;2.90;;;;;;;4.45;100.00;102443.38;4977087;28;20192;-78
2023/01/27 00:49:17;;;;;;;5.20;3.17;;;;;;;4.48;100.00;102445.22;4979652;28;20192;-77
2023/01/27 00:51:42;;;;;;;5.73;3.60;;;;;;;4.49;100.00;102444.44;4973572;28;20180;-78
2023/01/27 00:54:08;;;;;;;7.63;4.07;;;;;;;4.50;100.00;102447.09;4968810;28;20617;-77
2023/01/27 00:56:34;;;;;;;3.83;2.67;;;;;;;4.50;100.00;102447.09;4970991;28;20801;-80
2023/01/27 00:58:59;;;;;;;4.67;2.70;;;;;;;4.51;100.00;102451.38;4980824;28;20196;-78
2023/01/27 01:01:26;;;;;;;2.90;2.50;;;;;;;4.52;100.00;102452.28;4961666;28;20215;-79
2023/01/27 01:03:51;;;;;;;3.20;2.40;;;;;;;4.53;100.00;102451.50;4974013;28;20181;-78
2023/01/27 01:06:18;;;;;;;4.97;2.40;;;;;;;4.53;100.00;102448.97;4981007;28;20623;-78
2023/01/27 01:08:43;;;;;;;7.73;2.73;;;;;;;4.54;100.00;102450.72;4976783;28;20200;-78
2023/01/27 01:11:12;;;;;;;5.70;2.80;;;;;;;4.54;100.00;102446.53;4962931;28;20211;-78
2023/01/27 01:13:39;;;;;;;4.10;3.10;;;;;;;4.55;100.00;102455.91;4962845;28;20273;-78
2023/01/27 01:16:11;;;;;;;2.40;2.20;;;;;;;4.56;100.00;102451.72;4975794;28;20192;-77
2023/01/27 01:18:37;;;;;;;4.50;2.80;;;;;;;4.56;100.00;102452.56;4973661;28;20238;-77
2023/01/27 01:21:05;;;;;;;4.17;2.63;;;;;;;4.59;100.00;102454.44;4960882;28;20359;-79
2023/01/27 01:23:31;;;;;;;4.03;2.70;;;;;;;4.59;100.00;102459.50;4956836;28;20188;-78
2023/01/27 01:25:57;;;;;;;3.33;2.60;;;;;;;4.58;100.00;102453.59;4976714;28;20674;-78
2023/01/27 01:28:23;;;;;;;4.00;2.90;;;;;;;4.60;100.00;102457.09;4975297;28;20199;-78
2023/01/27 01:30:49;;;;;;;3.63;2.87;;;;;;;4.61;100.00;102465.59;4976630;28;20205;-78
2023/01/27 01:33:16;;;;;;;3.87;3.07;;;;;;;4.59;100.00;102455.34;4980106;28;20257;-79
2023/01/27 01:35:42;;;;;;;4.37;2.67;;;;;;;4.61;100.00;102461.38;4975167;28;20295;-78
2023/01/27 01:38:08;;;;;;;4.70;3.10;;;;;;;4.61;100.00;102463.91;4979754;28;20198;-78
2023/01/27 01:40:38;;;;;;;4.40;2.90;;;;;;;4.63;100.00;102464.94;4992666;28;20453;-78
2023/01/27 01:43:10;;;;;;;5.40;3.40;;;;;;;4.64;100.00;102469.22;4979635;28;20791;-78
2023/01/27 01:45:41;;;;;;;3.87;2.97;;;;;;;4.64;100.00;102471.75;4977696;28;20211;-79
2023/01/27 01:48:21;;;;;;;6.00;3.63;;;;;;;4.67;100.00;102473.63;4979024;28;20689;-77
2023/01/27 01:50:52;;;;;;;4.63;3.03;;;;;;;4.67;100.00;102476.16;4973221;28;20676;-78
2023/01/27 01:53:20;;;;;;;4.03;3.43;;;;;;;4.65;100.00;102470.97;4980737;28;20653;-78
2023/01/27 01:55:47;;;;;;;5.70;3.30;;;;;;;4.68;100.00;102475.38;4979094;28;20216;-78
2023/01/27 01:58:14;;;;;;;5.80;3.80;;;;;;;4.67;100.00;102489.72;4977789;28;20211;-78
2023/01/27 02:00:40;;;;;;;4.27;3.20;;;;;;;4.69;100.00;102489.84;4950918;28;20205;-79
2023/01/27 02:03:05;;;;;;;4.87;3.60;;;;;;;4.69;100.00;102485.63;4975720;28;20615;-78
2023/01/27 02:05:39;;;;;;;7.33;3.10;;;;;;;4.69;100.00;102493.25;4973018;28;20188;-79
2023/01/27 02:08:18;;;;;;;4.43;2.90;;;;;;;4.69;100.00;102492.38;4966960;28;20200;-78
2023/01/27 02:10:44;;;;;;;6.43;3.43;;;;;;;4.69;100.00;102494.91;4972889;28;20235;-78
2023/01/27 02:13:10;;;;;;;4.07;2.70;;;;;;;4.69;100.00;102495.78;4979639;28;20671;-78
2023/01/27 02:15:37;;;;;;;4.07;2.80;;;;;;;4.68;100.00;102486.41;4955293;28;20212;-78
2023/01/27 02:18:03;;;;;;;4.43;2.97;;;;;;;4.68;100.00;102483.88;4981553;28;20518;-78
2023/01/27 02:20:41;;;;;;;3.83;2.60;;;;;;;4.67;100.00;102487.19;4971724;28;20248;-77
2023/01/27 02:23:27;;;;;;;4.30;2.97;;;;;;;4.68;100.00;102491.50;4975177;28;20219;-77
2023/01/27 02:26:09;;;;;;;2.60;2.30;;;;;;;4.67;100.00;102493.91;4966845;28;20184;-77
2023/01/27 02:28:35;;;;;;;3.80;2.50;;;;;;;4.68;100.00;102498.19;4960963;28;20201;-77
2023/01/27 02:31:01;;;;;;;4.93;3.17;;;;;;;4.68;100.00;102496.56;4972150;28;20207;-78
2023/01/27 02:33:26;;;;;;;3.43;2.60;;;;;;;4.67;100.00;102497.34;4970049;28;20796;-78
2023/01/27 02:36:07;;;;;;;4.03;2.40;;;;;;;4.67;100.00;102496.44;4966025;28;20310;-77
2023/01/27 02:38:37;;;;;;;5.20;2.77;;;;;;;4.67;100.00;102501.53;4966004;28;20199;-77
2023/01/27 02:41:17;;;;;;;5.10;2.87;;;;;;;4.68;100.00;102501.63;4983875;28;20226;-77
2023/01/27 02:43:44;;;;;;;2.80;2.50;;;;;;;4.67;100.00;102512.56;4978529;28;20224;-78
2023/01/27 02:46:09;;;;;;;5.90;2.50;;;;;;;4.65;100.00;102505.63;4977268;28;20201;-78
2023/01/27 02:48:35;;;;;;;3.80;2.60;;;;;;;4.64;100.00;102516.50;4956873;28;20203;-78
2023/01/27 02:51:00;;;;;;;3.00;2.50;;;;;;;4.64;100.00;102513.97;4963402;28;20707;-77
2023/01/27 02:53:28;;;;;;;3.30;2.80;;;;;;;4.63;100.00;102518.19;4966917;28;20269;-77
2023/01/27 02:55:54;;;;;;;3.23;2.50;;;;;;;4.61;100.00;102516.31;4964894;28;20263;-77
2023/01/27 02:58:20;;;;;;;3.50;2.30;;;;;;;4.61;100.00;102522.25;4959951;28;20255;-78
2023/01/27 03:00:50;;;;;;;4.27;2.60;;;;;;;4.61;100.00;102523.94;4973904;28;20212;-78
2023/01/27 03:03:15;;;;;;;5.13;2.20;;;;;;;4.60;100.00;102530.66;4975097;28;20192;-77
2023/01/27 03:05:41;;;;;;;2.73;2.30;;;;;;;4.60;100.00;102525.56;4962633;28;20599;-77
2023/01/27 03:08:06;;;;;;;2.57;2.13;;;;;;;4.61;100.00;102527.34;4965685;28;20191;-78
2023/01/27 03:10:32;;;;;;;2.60;2.40;;;;;;;4.61;100.00;102527.34;4965298;28;20294;-78
2023/01/27 03:12:58;;;;;;;3.57;2.00;;;;;;;4.62;100.00;102523.16;4979928;28;20786;-77
2023/01/27 03:18:14;;;;;;;2.43;2.00;;;;;;;4.63;100.00;102535.94;4974582;28;20199;-77
2023/01/27 03:20:44;;;;;;;2.87;2.10;;;;;;;4.64;100.00;102544.41;4960023;28;20243;-78
2023/01/27 03:23:10;;;;;;;3.33;2.30;;;;;;;4.62;100.00;102538.38;4976489;28;20250;-78
2023/01/27 03:25:39;;;;;;;4.07;2.17;;;;;;;4.60;100.00;102542.47;4978229;28;20687;-77
2023/01/27 03:28:04;;;;;;;2.97;2.00;;;;;;;4.61;100.00;102549.28;4979009;28;20196;-78
2023/01/27 03:30:48;;;;;;;2.43;2.10;;;;;;;4.61;100.00;102550.16;4977136;28;20813;-78
2023/01/27 03:33:21;;;;;;;3.77;1.97;;;;;;;4.59;100.00;102544.09;4963563;28;20200;-77
2023/01/27 03:47:01;;;;;;;2.70;1.70;;;;;;;4.55;100.00;102574.25;4977350;28;20271;-78
2023/01/27 03:49:26;;;;;;;1.70;1.60;;;;;;;4.54;100.00;102580.06;4975521;28;20279;-78
2023/01/27 03:51:51;;;;;;;3.07;1.70;;;;;;;4.50;100.00;102578.97;4975440;28;20559;-78
2023/01/27 03:54:17;;;;;;;3.13;1.80;;;;;;;4.49;100.00;102578.84;4981777;28;20580;-77
2023/01/27 03:56:42;;;;;;;4.43;1.77;;;;;;;4.49;100.00;102579.75;4977553;28;20682;-78
2023/01/27 03:59:08;;;;;;;2.37;1.60;;;;;;;4.48;100.00;102587.25;4962067;28;20196;-78
2023/01/27 04:01:33;;;;;;;2.53;1.17;;;;;;;4.46;100.00;102587.13;4981547;28;20203;-78
2023/01/27 04:06:53;;;;;;;2.33;0.90;;;;;;;4.45;100.00;102590.44;4978202;28;20298;-78
2023/01/27 04:09:22;;;;;;;2.50;1.10;;;;;;;4.45;100.00;102590.44;4985356;28;20675;-77
2023/01/27 04:11:54;;;;;;;2.37;1.00;;;;;;;4.46;100.00;102594.72;4983148;28;20197;-77
2023/01/27 04:14:20;;;;;;;2.33;1.03;;;;;;;4.47;100.00;102593.09;4984160;28;20215;-78
2023/01/27 04:16:46;;;;;;;2.30;1.33;;;;;;;4.46;100.00;102597.25;4977946;28;20197;-78
2023/01/27 04:19:12;;;;;;;3.03;1.20;;;;;;;4.46;100.00;102598.94;4981089;28;20188;-77
2023/01/27 04:21:39;;;;;;;6.67;1.40;;;;;;;4.45;100.00;102603.13;4977917;28;20185;-78
2023/01/27 04:24:15;;;;;;;3.50;1.20;;;;;;;4.46;100.00;102596.41;4984115;28;20550;-78
2023/01/27 04:26:44;;;;;;;4.40;1.57;;;;;;;4.46;100.00;102601.47;4971640;28;20283;-78
2023/01/27 04:29:14;;;;;;;3.00;1.40;;;;;;;4.44;100.00;102598.81;4983312;28;20188;-78
2023/01/27 04:31:39;;;;;;;1.83;1.30;;;;;;;4.38;100.00;102600.91;4982432;28;20677;-78
2023/01/27 04:34:06;;;;;;;3.53;1.23;;;;;;;4.36;100.00;102607.53;4991017;28;20211;-79
2023/01/27 04:36:32;;;;;;;2.20;1.20;;;;;;;4.32;100.00;102605.53;4977125;28;20196;-78
2023/01/27 04:38:57;;;;;;;2.93;1.20;;;;;;;4.32;100.00;102608.06;4985060;28;20203;-78
2023/01/27 04:41:22;;;;;;;1.83;1.10;;;;;;;4.32;100.00;102617.34;4968942;28;20212;-78
2023/01/27 04:43:48;;;;;;;2.47;1.27;;;;;;;4.30;100.00;102619.78;4982830;28;20192;-77
2023/01/27 04:46:13;;;;;;;4.07;1.23;;;;;;;4.29;100.00;102633.22;4978646;28;20206;-77
2023/01/27 04:48:39;;;;;;;2.70;1.30;;;;;;;4.29;100.00;102628.16;4971744;28;20227;-78
2023/01/27 04:51:05;;;;;;;3.03;1.50;;;;;;;4.26;100.00;102629.56;4978536;28;20730;-77
2023/01/27 04:53:30;;;;;;;2.33;1.50;;;;;;;4.25;100.00;102638.84;4980131;28;20200;-77
2023/01/27 04:56:05;;;;;;;2.77;1.53;;;;;;;4.21;100.00;102635.94;4986762;28;20236;-77
2023/01/27 04:58:30;;;;;;;2.10;1.50;;;;;;;4.20;100.00;102644.31;4980113;28;20188;-78
2023/01/27 05:00:56;;;;;;;2.43;1.80;;;;;;;4.19;100.00;102642.56;4973573;28;20291;-78
2023/01/27 05:03:22;;;;;;;3.37;1.40;;;;;;;4.13;100.00;102649.69;4982375;28;20224;-77
2023/01/27 05:05:47;;;;;;;2.67;1.60;;;;;;;4.13;100.00;102647.16;4981946;28;20181;-77
2023/01/27 05:08:12;;;;;;;1.67;1.20;;;;;;;4.11;100.00;102638.59;4969978;28;20901;-78
2023/01/27 05:10:38;;;;;;;3.23;1.33;;;;;;;4.09;100.00;102648.59;4968601;28;20219;-78
2023/01/27 05:13:03;;;;;;;2.07;1.30;;;;;;;4.07;100.00;102647.63;4970640;28;20412;-77
2023/01/27 05:15:29;;;;;;;4.07;1.50;;;;;;;4.07;100.00;102647.63;4984481;28;20298;-78
2023/01/27 05:17:55;;;;;;;2.80;1.43;;;;;;;4.07;100.00;102655.22;4995823;28;20203;-78
2023/01/27 05:20:21;;;;;;;4.00;1.57;;;;;;;4.08;100.00;102656.09;4983244;28;20322;-77
2023/01/27 05:22:46;;;;;;;2.67;1.40;;;;;;;4.09;100.00;102656.19;4974626;28;20199;-78
2023/01/27 05:25:12;;;;;;;5.00;2.00;;;;;;;4.06;100.00;102658.53;4964983;28;20184;-77
2023/01/27 05:27:37;;;;;;;6.03;2.83;;;;;;;4.04;100.00;102666.75;4982092;28;20190;-77
2023/01/27 05:30:03;;;;;;;6.63;2.10;;;;;;;4.01;100.00;102656.41;4985995;28;20241;-77
2023/01/27 05:32:29;;;;;;;3.77;1.90;;;;;;;4.02;100.00;102658.19;4976030;28;20232;-78
2023/01/27 05:34:54;;;;;;;3.10;2.10;;;;;;;4.03;100.00;102665.91;4969724;28;20220;-77
2023/01/27 05:37:20;;;;;;;5.00;2.80;;;;;;;4.02;100.00;102671.75;4986100;28;20218;-77
2023/01/27 05:39:45;;;;;;;3.60;2.00;;;;;;;4.02;100.00;102673.38;4976526;28;20239;-78
2023/01/27 05:42:10;;;;;;;3.60;2.00;;;;;;;3.98;100.00;102667.22;4972311;28;20196;-77
2023/01/27 05:44:36;;;;;;;5.10;1.97;;;;;;;3.97;100.00;102662.91;4958850;28;20184;-78
2023/01/27 05:47:01;;;;;;;3.40;2.00;;;;;;;3.95;100.00;102664.44;4970977;28;20200;-78
2023/01/27 05:49:27;;;;;;;3.93;1.90;;;;;;;3.94;100.00;102666.84;4977283;28;20196;-78
2023/01/27 05:51:52;;;;;;;6.53;2.20;;;;;;;3.95;100.00;102664.44;4971067;28;20201;-77
2023/01/27 05:54:18;;;;;;;3.93;1.90;;;;;;;3.95;100.00;102655.97;4984935;28;20228;-78
2023/01/27 05:56:43;;;;;;;4.03;2.23;;;;;;;3.94;100.00;102654.19;4967965;28;20220;-77
2023/01/27 05:59:09;;;;;;;4.53;1.90;;;;;;;3.94;100.00;102665.22;4987463;28;20649;-78
2023/01/27 06:01:36;;;;;;;3.93;1.80;;;;;;;3.91;100.00;102670.03;4981857;28;20735;-77
2023/01/27 06:04:03;;;;;;;2.73;1.70;;;;;;;3.90;100.00;102668.28;4986586;28;20213;-78
2023/01/27 06:06:30;;;;;;;5.73;1.70;;;;;;;3.88;100.00;102674.00;4980882;28;20892;-77
2023/01/27 06:08:56;;;;;;;3.60;1.60;;;;;;;3.88;100.00;102668.94;4962205;28;20223;-78
2023/01/27 06:11:23;;;;;;;4.27;1.77;;;;;;;3.88;100.00;102674.91;4989003;28;20704;-78
2023/01/27 06:13:50;;;;;;;5.17;1.90;;;;;;;3.87;100.00;102680.69;4980718;28;20219;-77
2023/01/27 06:16:18;;;;;;;4.60;2.03;;;;;;;3.89;100.00;102685.88;4978827;28;20200;-79
2023/01/27 06:18:45;;;;;;;2.57;1.70;;;;;;;3.88;100.00;102679.97;4983270;28;20231;-77
2023/01/27 06:21:14;;;;;;;7.40;2.40;;;;;;;3.86;100.00;102688.22;4984315;28;20224;-77
2023/01/27 06:23:40;;;;;;;3.57;2.07;;;;;;;3.85;100.00;102682.25;4968915;28;20200;-78
2023/01/27 06:26:11;;;;;;;5.27;2.30;;;;;;;3.84;100.00;102693.16;4973414;28;20250;-79
2023/01/27 06:28:37;;;;;;;4.67;2.37;;;;;;;3.82;100.00;102694.69;4986012;28;20196;-77
2023/01/27 06:31:21;;;;;;;4.97;2.07;;;;;;;3.83;100.00;102698.09;4975305;28;20599;-78
2023/01/27 06:33:47;;;;;;;4.33;2.00;;;;;;;3.83;100.00;102704.06;4970210;28;20203;-78
2023/01/27 06:36:19;;;;;;;3.87;2.10;;;;;;;3.83;100.00;102703.16;4974343;28;20665;-78
2023/01/27 06:38:45;;;;;;;2.80;2.13;;;;;;;3.82;100.00;102709.00;4987438;28;20199;-77
2023/01/27 06:41:10;;;;;;;2.97;2.00;;;;;;;3.82;100.00;102709.00;4987087;28;20211;-77
2023/01/27 06:43:36;;;;;;;6.80;2.40;;;;;;;3.83;100.00;102718.38;4983632;28;20624;-77
2023/01/27 06:46:01;;;;;;;3.57;2.20;;;;;;;3.80;100.00;102710.53;4981132;28;20188;-77
2023/01/27 06:48:28;;;;;;;4.77;1.77;;;;;;;3.80;100.00;102716.50;4966922;28;20195;-78
2023/01/27 06:50:54;;;;;;;5.33;2.13;;;;;;;3.80;100.00;102730.78;4984648;28;20904;-77
2023/01/27 06:53:20;;;;;;;5.07;2.00;;;;;;;3.78;100.00;102738.28;4986566;28;20283;-77
2023/01/27 06:55:46;;;;;;;5.13;2.17;;;;;;;3.79;100.00;102737.53;4985132;28;20294;-77
2023/01/27 06:58:13;;;;;;;5.47;2.20;;;;;;;3.81;100.00;102735.09;4981735;28;20199;-77
2023/01/27 07:00:39;;;;;;;2.70;1.87;;;;;;;3.79;100.00;102736.63;4974275;28;20244;-78
2023/01/27 07:03:05;;;;;;;3.47;2.07;;;;;;;3.79;100.00;102740.06;4985202;28;20207;-77
2023/01/27 07:05:32;;;;;;;2.17;1.67;;;;;;;3.80;100.00;102746.00;4987506;28;20188;-77
2023/01/27 07:07:57;;;;;;;3.20;1.70;;;;;;;3.81;100.00;102737.63;4980230;28;20189;-77
2023/01/27 07:10:23;;;;;;;5.37;1.70;;;;;;;3.80;100.00;102749.41;4976176;28;20669;-77
2023/01/27 07:12:48;;;;;;;12.20;7.03;;;;;;;3.79;100.00;102756.91;4997268;28;20250;-77
2023/01/27 07:15:14;;;;;;;15.07;8.20;;;;;;;3.79;100.00;102762.84;4963905;28;20225;-78
2023/01/27 07:17:39;;;;;;;15.80;9.83;;;;;;;3.81;100.00;102765.47;4978534;28;20237;-77
2023/01/27 07:20:08;;;;;;;7.13;4.10;;;;;;;3.81;100.00;102781.56;4973814;28;20216;-77
2023/01/27 07:22:33;;;;;;;7.00;4.40;;;;;;;3.81;100.00;102783.22;4987121;28;20234;-77
2023/01/27 07:24:59;;;;;;;5.37;3.83;;;;;;;3.79;100.00;102784.75;4971183;28;20679;-77
2023/01/27 07:27:25;;;;;;;6.33;2.60;;;;;;;3.79;100.00;102784.75;4971385;28;20249;-77
2023/01/27 07:29:51;;;;;;;6.00;4.13;;;;;;;3.78;100.00;102791.47;4977399;28;20298;-77
2023/01/27 07:32:16;;;;;;;6.87;6.17;;;;;;;3.78;100.00;102796.53;4942372;28;20224;-77
2023/01/27 07:34:42;;;;;;;5.93;3.27;;;;;;;3.77;100.00;102797.31;4984947;28;20240;-77
2023/01/27 07:37:07;;;;;;;5.67;4.00;;;;;;;3.79;100.00;102810.09;4982401;28;20199;-77
2023/01/27 07:39:35;;;;;;;9.70;6.10;;;;;;;3.79;100.00;102805.91;4971465;28;20223;-78
2023/01/27 07:42:01;;;;;;;6.57;5.50;;;;;;;3.82;100.00;102810.34;4987613;28;20680;-78
2023/01/27 07:44:27;;;;;;;5.10;3.97;;;;;;;3.83;100.00;102818.06;4985971;28;20240;-77
2023/01/27 07:46:52;;;;;;;4.43;2.97;;;;;;;3.83;100.00;102812.09;4990604;28;20857;-78
2023/01/27 07:49:18;;;;;;;3.93;1.90;;;;;;;3.83;100.00;102814.63;4991461;28;20211;-77
2023/01/27 07:51:43;;;;;;;2.20;1.40;;;;;;;3.84;100.00;102816.41;4983061;28;20199;-78
2023/01/27 07:54:09;;;;;;;5.10;1.70;;;;;;;3.82;100.00;102826.41;4975693;28;20219;-77
2023/01/27 07:56:35;;;;;;;2.87;1.53;;;;;;;3.78;100.00;102824.41;4973864;28;20627;-78
2023/01/27 07:59:00;;;;;;;3.27;1.50;;;;;;;3.78;100.00;102836.19;5007181;28;20718;-77
2023/01/27 08:01:26;;;;;;;4.47;1.70;;;;;;;3.78;100.00;102828.59;4990268;28;20223;-78
2023/01/27 08:03:51;;;;;;;4.50;1.67;;;;;;;3.78;100.00;102829.47;4963393;28;20202;-77
2023/01/27 08:06:17;;;;;;;3.10;1.43;;;;;;;3.77;100.00;102830.22;4980255;28;20220;-78
2023/01/27 08:08:42;;;;;;;3.77;1.60;;;;;;;3.79;100.00;102830.34;4981154;28;20239;-77
2023/01/27 08:11:11;;;;;;;7.03;2.40;;;;;;;3.79;100.00;102830.34;4975567;28;20338;-77
2023/01/27 08:13:37;;;;;;;8.83;4.20;;;;;;;3.79;100.00;102831.25;4975916;28;20196;-77
2023/01/27 08:16:07;;;;;;;2.50;1.50;;;;;;;3.79;100.00;102830.34;4992055;28;20579;-78
2023/01/27 08:18:33;;;;;;;3.23;1.33;;;;;;;3.79;100.00;102835.41;4991821;28;20696;-77
2023/01/27 08:21:00;;;;;;;4.90;2.40;;;;;;;3.80;100.00;102824.53;4992439;28;20239;-78
2023/01/27 08:23:26;;;;;;;3.90;2.20;;;;;;;3.81;100.00;102834.78;4986839;28;20200;-78
2023/01/27 08:25:53;;;;;;;4.10;2.20;;;;;;;3.83;100.00;102829.84;4963040;28;20204;-77
2023/01/27 08:28:20;;;;;;;7.47;3.50;;;;;;;3.83;100.00;102835.78;4965270;28;20210;-78
2023/01/27 08:30:47;;;;;;;6.60;4.07;;;;;;;3.81;100.00;102838.94;4970692;28;20213;-77
2023/01/27 08:33:12;;;;;;;5.20;1.77;;;;;;;3.82;100.00;102826.41;4972326;28;20219;-77
2023/01/27 08:35:41;;;;;;;5.07;2.93;;;;;;;3.86;100.00;102830.09;4972274;28;20220;-77
2023/01/27 08:38:07;;;;;;;14.00;7.07;;;;;;;3.86;100.00;102835.16;4942502;28;20216;-77
2023/01/27 08:40:33;;;;;;;10.77;5.37;;;;;;;3.86;100.00;102833.47;4971328;28;20583;-77
2023/01/27 08:43:00;;;;;;;16.70;9.20;;;;;;;3.88;100.00;102833.59;4958630;28;20330;-77
2023/01/27 08:45:26;;;;;;;21.40;11.47;;;;;;;3.89;100.00;102836.25;4955553;28;20193;-75
2023/01/27 08:47:52;;;;;;;32.37;18.27;;;;;;;3.89;100.00;102846.41;4963309;28;20200;-78
2023/01/27 08:50:17;;;;;;;23.67;11.43;;;;;;;3.89;100.00;102848.94;4968487;28;20562;-77
2023/01/27 08:52:43;;;;;;;7.80;4.20;;;;;;;3.83;100.00;102847.56;4972645;28;20815;-76
2023/01/27 08:55:08;;;;;;;9.53;5.30;;;;;;;3.84;100.00;102852.75;4969995;28;20217;-77
2023/01/27 08:57:34;;;;;;;10.77;5.40;;;;;;;3.81;100.00;102855.03;4957795;28;20201;-75
2023/01/27 09:00:00;;;;;;;31.57;12.67;;;;;;;3.82;100.00;102856.81;4955763;28;20247;-77
2023/01/27 09:02:25;;;;;;;39.13;11.57;;;;;;;3.81;100.00;102854.16;4950155;28;20220;-76
2023/01/27 09:04:51;;;;;;;24.37;6.37;;;;;;;3.79;100.00;102854.06;4963962;28;20618;-75
2023/01/27 09:07:17;;;;;;;46.47;14.73;;;;;;;3.81;100.00;102859.22;4968681;28;20200;-77
2023/01/27 09:09:45;;;;;;;19.00;7.13;;;;;;;3.77;100.00;102863.16;4965494;28;20212;-79
2023/01/27 09:12:11;;;;;;;8.57;3.43;;;;;;;3.78;100.00;102859.00;4973782;28;20219;-76
2023/01/27 09:14:36;;;;;;;13.93;4.27;;;;;;;3.81;100.00;102860.09;4952242;28;20681;-75
2023/01/27 09:17:02;;;;;;;8.13;2.10;;;;;;;3.81;100.00;102859.22;4987302;28;20247;-75
2023/01/27 09:19:28;;;;;;;7.90;2.70;;;;;;;3.79;100.00;102868.34;4949241;28;20193;-75
2023/01/27 09:21:53;;;;;;;14.40;4.27;;;;;;;3.79;100.00;102873.41;4958349;28;20196;-76
2023/01/27 09:24:19;;;;;;;9.50;3.10;;;;;;;3.79;100.00;102866.72;4947969;28;20198;-76
2023/01/27 09:26:45;;;;;;;11.63;2.77;;;;;;;3.83;100.00;102876.34;4965016;28;20215;-76
2023/01/27 09:29:10;;;;;;;4.80;1.60;;;;;;;3.84;100.00;102874.66;4940470;28;20396;-75
2023/01/27 09:31:36;;;;;;;15.10;4.53;;;;;;;3.83;100.00;102883.03;4970526;28;20776;-74
2023/01/27 09:34:03;;;;;;;17.87;4.77;;;;;;;3.82;100.00;102882.13;4971359;28;20188;-75
2023/01/27 09:36:31;;;;;;;22.80;7.87;;;;;;;3.84;100.00;102883.16;4962263;28;20277;-74
2023/01/27 09:39:02;;;;;;;12.07;3.53;;;;;;;3.85;100.00;102884.94;4968951;28;20292;-77
2023/01/27 09:41:50;;;;;;;14.60;5.03;;;;;;;3.83;100.00;102885.56;4967176;28;20255;-76
2023/01/27 09:44:50;;;;;;;11.20;3.60;;;;;;;3.85;100.00;102886.56;4962198;28;20217;-76
2023/01/27 09:47:42;;;;;;;7.77;2.70;;;;;;;3.87;100.00;102888.44;4982461;28;20212;-74
2023/01/27 09:50:55;;;;;;;17.60;5.40;;;;;;;3.83;100.00;102891.53;4984049;28;20299;-76
2023/01/27 09:53:28;;;;;;;17.40;5.10;;;;;;;3.85;100.00;102894.16;4933265;28;20209;-76
2023/01/27 09:56:03;;;;;;;19.63;6.20;;;;;;;3.88;100.00;102892.78;4965776;28;20243;-76
2023/01/27 09:58:55;;;;;;;17.27;5.20;;;;;;;3.92;100.00;102892.22;4965432;28;20196;-76
2023/01/27 10:01:41;;;;;;;37.00;15.80;;;;;;;3.95;100.00;102889.94;4975640;28;20221;-75
2023/01/27 10:04:16;;;;;;;23.47;8.73;;;;;;;3.93;100.00;102891.47;4957625;28;20683;-74
2023/01/27 10:07:10;;;;;;;22.27;6.83;;;;;;;3.93;100.00;102885.53;4963059;28;20847;-75
2023/01/27 10:09:45;;;;;;;6.83;2.10;;;;;;;3.85;100.00;102899.22;4965085;28;20212;-75
2023/01/27 10:12:18;;;;;;;6.53;1.90;;;;;;;3.83;100.00;102896.59;4968401;28;20227;-76
2023/01/27 10:14:57;;;;;;;3.87;1.80;;;;;;;3.80;100.00;102893.81;4956615;28;20238;-77
2023/01/27 10:17:26;;;;;;;9.67;3.70;;;;;;;3.81;100.00;102894.69;4965167;28;20560;-74
2023/01/27 10:19:57;;;;;;;3.93;1.80;;;;;;;3.81;100.00;102887.97;4954080;28;20695;-76
2023/01/27 10:22:37;;;;;;;7.57;1.90;;;;;;;3.74;100.00;102893.34;4972711;28;20192;-76
2023/01/27 10:25:21;;;;;;;1.87;1.23;;;;;;;3.81;100.00;102890.50;4952910;28;20674;-76
2023/01/27 10:27:51;;;;;;;3.43;1.23;;;;;;;3.82;100.00;102894.81;4961519;28;20251;-76
2023/01/27 10:30:33;;;;;;;4.73;1.70;;;;;;;3.82;100.00;102896.47;4970899;28;20228;-76
2023/01/27 10:33:03;;;;;;;5.40;2.00;;;;;;;3.86;100.00;102888.34;4984588;28;20203;-76
2023/01/27 10:35:36;;;;;;;6.83;3.70;;;;;;;3.88;100.00;102889.34;4970703;28;20220;-76
2023/01/27 10:38:34;;;;;;;2.53;2.30;;;;;;;3.85;100.00;102900.13;4969071;28;20199;-76
2023/01/27 10:41:13;;;;;;;3.77;1.70;;;;;;;3.90;100.00;102885.28;4950933;28;21140;-76
2023/01/27 10:43:56;;;;;;;2.40;1.70;;;;;;;3.89;100.00;102892.00;4966173;28;21002;-77
2023/01/27 10:46:40;;;;;;;4.07;1.60;;;;;;;3.93;100.00;102899.09;4968743;28;20689;-78
2023/01/27 10:49:22;;;;;;;2.70;1.10;;;;;;;4.00;100.00;102883.56;4957452;28;20588;-77
2023/01/27 10:52:00;;;;;;;2.47;1.57;;;;;;;3.96;100.00;102888.31;4964047;28;20193;-77
2023/01/27 10:55:12;;;;;;;7.03;1.80;;;;;;;4.01;100.00;102889.53;4960631;28;20744;-76
2023/01/27 10:57:47;;;;;;;2.77;1.20;;;;;;;4.08;100.00;102885.06;4934521;28;20196;-77
2023/01/27 11:00:27;;;;;;;3.70;1.30;;;;;;;4.14;100.00;102885.53;4928316;28;20227;-76
2023/01/27 11:03:05;;;;;;;2.17;1.20;;;;;;;4.24;100.00;102877.00;4963350;28;20207;-76
2023/01/27 11:05:36;;;;;;;2.97;1.13;;;;;;;4.29;100.00;102881.69;4963861;28;20295;-77
2023/01/27 11:08:09;;;;;;;3.47;2.00;;;;;;;4.24;100.00;102875.34;4965080;28;20219;-77
2023/01/27 11:11:43;;;;;;;4.87;1.93;;;;;;;4.25;100.00;102876.22;4952879;28;20215;-77
2023/01/27 11:13:29;;;;;;;13.33;5.47;;;;;;;4.24;100.00;102875.34;4965982;28;20193;-78
2023/01/27 11:15:55;;;;;;;7.20;1.80;;;;;;;4.24;100.00;102870.25;4974396;28;20319;-77
2023/01/27 11:18:24;;;;;;;13.10;5.17;;;;;;;4.32;100.00;102870.88;4979118;28;20276;-77
2023/01/27 11:20:57;;;;;;;3.47;0.90;;;;;;;4.29;100.00;102869.00;4974342;28;20215;-78
2023/01/27 11:23:27;;;;;;;4.97;1.20;;;;;;;4.32;100.00;102873.41;4969631;28;20196;-78
2023/01/27 11:26:20;;;;;;;3.13;1.13;;;;;;;4.36;100.00;102878.81;4962273;28;20193;-77
2023/01/27 11:29:04;;;;;;;3.67;1.20;;;;;;;4.33;100.00;102876.03;4980694;28;20239;-78
2023/01/27 11:31:51;;;;;;;6.17;2.30;;;;;;;4.32;100.00;102873.41;4967433;28;20219;-77
2023/01/27 11:34:25;;;;;;;6.13;2.73;;;;;;;4.25;100.00;102866.09;4962279;28;20228;-77
2023/01/27 11:36:51;;;;;;;10.50;6.23;;;;;;;4.16;100.00;102883.13;4990185;28;20678;-78
2023/01/27 11:39:17;;;;;;;3.33;1.20;;;;;;;4.18;100.00;102876.53;4966571;28;20192;-76
2023/01/27 11:41:47;;;;;;;3.00;0.70;;;;;;;4.14;100.00;102882.13;4972218;28;20196;-76
2023/01/27 11:44:30;;;;;;;2.87;1.00;;;;;;;4.15;100.00;102878.84;4979542;28;20185;-77
2023/01/27 11:46:57;;;;;;;2.70;0.60;;;;;;;4.17;100.00;102870.56;4973946;28;20197;-78
2023/01/27 11:49:43;;;;;;;1.80;0.90;;;;;;;4.26;100.00;102867.84;4962119;28;20185;-77
2023/01/27 11:52:16;;;;;;;2.83;1.03;;;;;;;4.25;100.00;102867.00;4972781;28;20199;-76
2023/01/27 11:54:56;;;;;;;1.50;0.70;;;;;;;4.26;100.00;102873.81;4963328;28;20212;-77
2023/01/27 11:57:24;;;;;;;3.70;1.10;;;;;;;4.37;100.00;102867.03;4947298;28;20197;-77
2023/01/27 11:59:55;;;;;;;3.73;1.20;;;;;;;4.32;100.00;102863.28;4970674;28;20217;-77